createdAt,value
2022-11-24T00:01:34.668Z,9.99
2022-11-24T00:04:27.027Z,10.24
2022-11-24T00:07:12.193Z,10.34
2022-11-24T00:09:44.975Z,9.91
2022-11-24T00:12:32.570Z,9.87
2022-11-24T00:31:42.931Z,10.36
2022-11-24T00:34:41.876Z,9.92
2022-11-24T00:37:29.022Z,9.97
2022-11-24T00:43:28.964Z,9.62
2022-11-24T00:49:37.947Z,9.68
2022-11-24T00:53:01.131Z,9.89
2022-11-24T00:56:26.658Z,9.52
2022-11-24T01:05:33.528Z,10.05
2022-11-24T01:08:23.515Z,9.78
2022-11-24T01:33:00.881Z,10.00
2022-11-24T01:35:27.639Z,9.51
2022-11-24T01:37:54.350Z,9.65
2022-11-24T01:40:21.271Z,9.56
2022-11-24T01:42:50.918Z,10.02
2022-11-24T01:45:41.414Z,9.80
2022-11-24T01:48:22.043Z,9.99
2022-11-24T01:50:58.398Z,9.87
2022-11-24T01:53:25.811Z,10.03
2022-11-24T01:55:53.068Z,10.17
2022-11-24T01:58:24.654Z,9.98
2022-11-24T02:00:52.411Z,9.62
2022-11-24T02:03:25.649Z,9.76
2022-11-24T02:06:19.665Z,10.00
2022-11-24T02:09:02.280Z,9.87
2022-11-24T02:11:35.094Z,10.32
2022-11-24T02:14:03.969Z,10.16
2022-11-24T02:16:31.960Z,9.87
2022-11-24T02:18:58.774Z,9.65
2022-11-24T02:21:25.641Z,9.87
2022-11-24T02:24:06.344Z,10.24
2022-11-24T02:26:41.709Z,10.15
2022-11-24T02:29:11.682Z,9.86
2022-11-24T02:31:43.587Z,10.09
2022-11-24T02:34:10.343Z,9.85
2022-11-24T02:36:37.169Z,10.06
2022-11-24T02:39:09.716Z,10.27
2022-11-24T02:41:37.154Z,9.58
2022-11-24T02:44:04.333Z,9.79
2022-11-24T02:46:31.117Z,10.19
2022-11-24T02:48:57.962Z,10.01
2022-11-24T02:51:24.691Z,9.93
2022-11-24T02:53:51.397Z,10.17
2022-11-24T02:56:18.199Z,10.13
2022-11-24T02:58:44.947Z,10.49
2022-11-24T03:01:11.871Z,10.54
2022-11-24T03:03:39.514Z,9.79
2022-11-24T03:06:06.323Z,10.27
2022-11-24T03:08:33.056Z,9.85
2022-11-24T03:11:01.837Z,10.14
2022-11-24T03:13:28.681Z,10.23
2022-11-24T03:15:55.590Z,9.63
2022-11-24T03:18:22.330Z,10.12
2022-11-24T03:20:49.663Z,9.61
2022-11-24T03:23:16.443Z,9.73
2022-11-24T03:25:43.177Z,9.65
2022-11-24T03:28:09.920Z,10.09
2022-11-24T03:30:36.601Z,9.91
2022-11-24T03:33:05.075Z,10.02
2022-11-24T03:35:31.832Z,10.07
2022-11-24T03:37:58.559Z,9.75
2022-11-24T03:40:25.262Z,9.55
2022-11-24T03:42:51.946Z,9.77
2022-11-24T03:48:07.442Z,9.94
2022-11-24T03:50:34.168Z,9.71
2022-11-24T03:53:00.935Z,10.00
2022-11-24T03:55:27.773Z,9.90
2022-11-24T03:57:54.910Z,9.89
2022-11-24T04:00:21.769Z,9.42
2022-11-24T04:02:48.801Z,9.44
2022-11-24T04:05:15.843Z,9.71
2022-11-24T04:07:42.684Z,9.91
2022-11-24T04:10:09.579Z,9.79
2022-11-24T04:12:45.360Z,9.50
2022-11-24T04:15:17.935Z,9.87
2022-11-24T04:17:46.280Z,9.68
2022-11-24T04:20:13.686Z,9.73
2022-11-24T04:22:40.457Z,9.32
2022-11-24T04:25:08.045Z,9.72
2022-11-24T04:27:36.108Z,9.80
2022-11-24T04:30:04.615Z,10.30
2022-11-24T04:32:31.325Z,9.87
2022-11-24T04:34:58.027Z,10.19
2022-11-24T04:37:24.865Z,9.84
2022-11-24T04:39:51.520Z,10.30
2022-11-24T04:42:18.181Z,10.36
2022-11-24T04:44:44.864Z,10.17
2022-11-24T04:47:21.281Z,9.71
2022-11-24T04:49:49.076Z,10.19
2022-11-24T04:52:16.924Z,10.10
2022-11-24T04:54:43.829Z,9.98
2022-11-24T04:57:22.184Z,10.19
2022-11-24T04:59:49.950Z,10.28
2022-11-24T05:02:17.119Z,10.53
2022-11-24T05:04:43.790Z,10.80
2022-11-24T05:07:18.042Z,10.23
2022-11-24T05:10:04.629Z,10.43
2022-11-24T05:12:31.496Z,10.50
2022-11-24T05:14:59.375Z,10.68
2022-11-24T05:17:34.694Z,10.30
2022-11-24T05:20:01.681Z,10.60
2022-11-24T05:22:29.658Z,10.69
2022-11-24T05:24:56.274Z,10.35
2022-11-24T05:27:23.189Z,10.03
2022-11-24T05:29:50.020Z,9.95
2022-11-24T05:32:16.677Z,10.73
2022-11-24T05:34:45.891Z,10.45
2022-11-24T05:37:12.547Z,10.75
2022-11-24T05:39:39.220Z,10.58
2022-11-24T05:42:26.305Z,10.19
2022-11-24T05:44:53.716Z,10.48
2022-11-24T05:47:21.040Z,10.05
2022-11-24T05:49:47.910Z,10.64
2022-11-24T05:52:15.471Z,10.41
2022-11-24T05:54:42.226Z,10.79
2022-11-24T05:57:09.197Z,10.63
2022-11-24T05:59:35.948Z,10.77
2022-11-24T06:02:03.066Z,10.35
2022-11-24T06:04:29.754Z,10.26
2022-11-24T06:06:56.402Z,10.91
2022-11-24T06:09:23.000Z,10.93
2022-11-24T06:11:49.689Z,11.09
2022-11-24T06:14:16.401Z,10.32
2022-11-24T06:16:43.090Z,10.46
2022-11-24T06:19:11.403Z,10.59
2022-11-24T06:21:38.108Z,10.56
2022-11-24T06:24:05.577Z,10.57
2022-11-24T06:26:32.291Z,10.79
2022-11-24T06:28:59.405Z,10.90
2022-11-24T06:31:26.201Z,10.30
2022-11-24T06:33:53.242Z,10.85
2022-11-24T06:36:20.429Z,11.16
2022-11-24T06:38:47.169Z,10.85
2022-11-24T06:41:15.341Z,11.04
2022-11-24T06:43:42.202Z,10.90
2022-11-24T06:46:08.984Z,10.90
2022-11-24T06:48:35.816Z,10.34
2022-11-24T06:51:05.976Z,10.59
2022-11-24T06:53:37.748Z,11.00
2022-11-24T06:56:12.169Z,11.34
2022-11-24T06:58:47.541Z,11.16
2022-11-24T07:01:26.210Z,11.26
2022-11-24T07:03:54.207Z,11.32
2022-11-24T07:06:22.655Z,11.11
2022-11-24T07:08:49.965Z,10.87
2022-11-24T07:11:19.981Z,11.17
2022-11-24T07:13:47.379Z,10.62
2022-11-24T07:16:15.044Z,11.02
2022-11-24T07:18:42.913Z,10.98
2022-11-24T07:21:09.788Z,10.40
2022-11-24T07:23:36.735Z,10.34
2022-11-24T07:26:06.892Z,10.71
2022-11-24T07:28:36.847Z,10.83
2022-11-24T07:31:12.602Z,11.14
2022-11-24T07:33:39.866Z,10.60
2022-11-24T07:36:07.810Z,10.78
2022-11-24T07:38:35.399Z,10.29
2022-11-24T07:41:03.927Z,10.52
2022-11-24T07:43:35.347Z,10.40
2022-11-24T07:46:02.302Z,10.74
2022-11-24T07:48:29.199Z,11.09
2022-11-24T07:50:58.951Z,10.61
2022-11-24T07:53:25.610Z,11.08
2022-11-24T07:55:58.154Z,11.41
2022-11-24T07:58:27.685Z,11.54
2022-11-24T08:00:58.710Z,10.90
2022-11-24T08:03:25.462Z,10.88
2022-11-24T08:08:43.324Z,10.95
2022-11-24T08:11:15.627Z,10.83
2022-11-24T08:13:42.889Z,10.94
2022-11-24T08:16:15.423Z,10.62
2022-11-24T08:18:42.928Z,10.99
2022-11-24T08:21:13.944Z,10.78
2022-11-24T08:23:40.779Z,11.10
2022-11-24T08:26:13.820Z,11.28
2022-11-24T08:28:40.618Z,11.25
2022-11-24T08:31:09.994Z,10.67
2022-11-24T08:33:37.730Z,11.25
2022-11-24T08:36:09.402Z,10.83
2022-11-24T08:38:36.170Z,10.63
2022-11-24T08:41:08.778Z,11.03
2022-11-24T08:43:35.509Z,10.96
2022-11-24T08:46:05.088Z,10.94
2022-11-24T08:48:32.485Z,11.44
2022-11-24T08:51:05.887Z,11.39
2022-11-24T08:53:32.553Z,11.35
2022-11-24T08:56:03.297Z,11.69
2022-11-24T08:58:30.320Z,10.90
2022-11-24T09:01:07.748Z,11.42
2022-11-24T09:03:34.790Z,11.77
2022-11-24T09:06:02.492Z,11.76
2022-11-24T09:08:30.538Z,11.15
2022-11-24T09:11:27.242Z,11.69
2022-11-24T09:13:54.568Z,11.22
2022-11-24T09:16:26.047Z,11.29
2022-11-24T09:19:04.545Z,11.53
2022-11-24T09:21:34.280Z,11.90
2022-11-24T09:24:01.201Z,11.96
2022-11-24T09:26:33.799Z,11.64
2022-11-24T09:29:02.926Z,11.76
2022-11-24T09:31:33.527Z,11.90
2022-11-24T09:34:01.493Z,11.66
2022-11-24T09:36:28.573Z,11.93
2022-11-24T09:38:55.417Z,11.91
2022-11-24T09:41:48.629Z,11.90
2022-11-24T09:44:34.011Z,12.22
2022-11-24T09:47:28.355Z,11.91
2022-11-24T09:50:03.227Z,12.31
2022-11-24T09:52:49.773Z,12.48
2022-11-24T09:55:29.275Z,12.38
2022-11-24T09:58:25.093Z,12.58
2022-11-24T10:00:54.041Z,12.30
2022-11-24T10:03:29.406Z,12.35
2022-11-24T10:05:56.054Z,12.90
2022-11-24T10:08:50.179Z,12.99
2022-11-24T10:11:28.367Z,12.88
2022-11-24T10:14:14.042Z,12.84
2022-11-24T10:17:02.009Z,13.13
2022-11-24T10:19:48.599Z,12.90
2022-11-24T10:22:26.051Z,13.07
2022-11-24T10:24:58.169Z,12.88
2022-11-24T10:27:37.258Z,13.21
2022-11-24T10:30:13.620Z,13.15
2022-11-24T10:32:42.875Z,13.34
2022-11-24T10:35:15.832Z,12.88
2022-11-24T10:37:55.611Z,13.22
2022-11-24T10:43:27.077Z,13.32
2022-11-24T10:48:57.464Z,13.72
2022-11-24T10:51:34.793Z,13.12
2022-11-24T10:54:11.342Z,13.23
2022-11-24T10:56:42.437Z,13.59
2022-11-24T10:59:28.157Z,13.56
2022-11-24T11:01:55.496Z,13.64
2022-11-24T11:04:27.594Z,13.40
2022-11-24T11:07:16.722Z,13.66
2022-11-24T11:09:43.452Z,13.44
2022-11-24T11:15:26.894Z,13.30
2022-11-24T11:17:58.457Z,13.70
2022-11-24T11:20:33.867Z,13.22
2022-11-24T11:23:13.426Z,13.33
2022-11-24T11:25:41.184Z,13.17
2022-11-24T11:28:31.140Z,13.50
2022-11-24T11:31:20.667Z,13.60
2022-11-24T11:34:03.607Z,13.68
2022-11-24T11:36:33.038Z,13.70
2022-11-24T11:39:00.134Z,13.93
2022-11-24T11:41:32.994Z,13.82
2022-11-24T11:44:25.023Z,13.84
2022-11-24T11:46:54.491Z,14.12
2022-11-24T11:49:21.245Z,13.80
2022-11-24T11:52:23.985Z,14.05
2022-11-24T11:55:28.012Z,13.71
2022-11-24T11:58:03.577Z,13.89
2022-11-24T12:00:35.272Z,13.71
2022-11-24T12:03:23.844Z,13.51
2022-11-24T12:06:15.348Z,13.63
2022-11-24T12:09:19.998Z,13.69
2022-11-24T12:12:21.325Z,14.11
2022-11-24T12:15:01.090Z,13.96
2022-11-24T12:17:52.707Z,14.04
2022-11-24T12:20:37.822Z,14.11
2022-11-24T12:23:41.436Z,13.86
2022-11-24T12:26:32.043Z,14.03
2022-11-24T12:29:08.016Z,14.23
2022-11-24T12:31:59.684Z,14.25
2022-11-24T12:34:29.141Z,13.66
2022-11-24T12:37:32.903Z,13.85
2022-11-24T12:40:13.253Z,14.03
2022-11-24T12:43:13.824Z,13.85
2022-11-24T12:46:02.591Z,13.93
2022-11-24T12:48:43.319Z,13.50
2022-11-24T12:51:25.792Z,13.75
2022-11-24T12:53:53.679Z,13.85
2022-11-24T12:56:28.260Z,14.32
2022-11-24T12:59:10.177Z,14.08
2022-11-24T13:01:44.255Z,14.25
2022-11-24T13:04:49.191Z,13.91
2022-11-24T13:07:32.921Z,14.22
2022-11-24T13:13:17.375Z,14.19
2022-11-24T13:16:07.018Z,14.19
2022-11-24T13:19:01.271Z,13.99
2022-11-24T13:21:28.415Z,14.05
2022-11-24T13:24:17.580Z,14.21
2022-11-24T13:26:48.377Z,14.17
2022-11-24T13:29:32.095Z,13.98
2022-11-24T13:32:04.894Z,14.35
2022-11-24T13:34:40.994Z,13.86
2022-11-24T13:37:31.723Z,13.94
2022-11-24T13:40:22.802Z,13.68
2022-11-24T13:43:01.286Z,13.94
2022-11-24T13:45:52.371Z,13.75
2022-11-24T13:48:19.064Z,13.37
2022-11-24T13:50:54.887Z,13.37
2022-11-24T13:53:36.368Z,13.63
2022-11-24T13:56:03.008Z,13.82
2022-11-24T13:58:43.534Z,14.04
2022-11-24T14:01:20.387Z,13.73
2022-11-24T14:04:32.890Z,13.75
2022-11-24T14:07:09.891Z,14.02
2022-11-24T14:09:52.602Z,13.96
2022-11-24T14:12:22.984Z,13.63
2022-11-24T14:14:55.630Z,13.56
2022-11-24T14:17:24.582Z,13.48
2022-11-24T14:19:53.961Z,13.41
2022-11-24T14:22:33.612Z,13.61
2022-11-24T14:25:02.550Z,13.66
2022-11-24T14:27:31.387Z,13.93
2022-11-24T14:30:22.630Z,13.90
2022-11-24T14:32:59.569Z,13.71
2022-11-24T14:35:35.232Z,13.72
2022-11-24T14:38:03.747Z,13.70
2022-11-24T14:40:51.380Z,13.46
2022-11-24T14:43:30.936Z,13.37
2022-11-24T14:46:00.283Z,13.23
2022-11-24T14:48:30.515Z,12.87
2022-11-24T14:51:21.353Z,12.95
2022-11-24T14:53:51.749Z,12.81
2022-11-24T14:56:24.438Z,12.90
2022-11-24T14:58:51.593Z,12.74
2022-11-24T15:01:21.817Z,12.67
2022-11-24T15:04:46.355Z,12.49
2022-11-24T15:07:16.934Z,12.39
2022-11-24T15:09:49.431Z,12.52
2022-11-24T15:12:41.447Z,12.56
2022-11-24T15:15:15.631Z,12.83
2022-11-24T15:17:53.737Z,12.63
2022-11-24T15:20:28.346Z,12.52
2022-11-24T15:23:18.909Z,12.12
2022-11-24T15:25:45.649Z,12.16
2022-11-24T15:28:12.311Z,12.31
2022-11-24T15:30:39.066Z,12.60
2022-11-24T15:33:17.760Z,12.68
2022-11-24T15:35:45.244Z,13.11
2022-11-24T15:38:12.096Z,12.91
2022-11-24T15:40:40.117Z,13.04
2022-11-24T15:43:36.766Z,12.85
2022-11-24T15:46:03.954Z,12.78
2022-11-24T15:48:31.199Z,12.90
2022-11-24T15:51:01.174Z,13.08
2022-11-24T15:53:36.041Z,13.10
2022-11-24T15:56:06.149Z,13.12
2022-11-24T15:58:32.814Z,12.72
2022-11-24T16:00:59.551Z,12.28
2022-11-24T16:06:19.254Z,12.63
2022-11-24T16:08:50.252Z,12.37
2022-11-24T16:11:16.936Z,12.67
2022-11-24T16:13:48.393Z,12.43
2022-11-24T16:16:18.483Z,12.14
2022-11-24T16:18:45.464Z,12.44
2022-11-24T16:21:12.251Z,12.69
2022-11-24T16:23:39.003Z,12.37
2022-11-24T16:26:06.185Z,12.31
2022-11-24T16:28:32.942Z,12.00
2022-11-24T16:30:59.701Z,11.91
2022-11-24T16:33:29.095Z,11.95
2022-11-24T16:35:55.726Z,12.39
2022-11-24T16:38:22.415Z,12.51
2022-11-24T16:40:54.155Z,12.13
2022-11-24T16:43:20.935Z,12.14
2022-11-24T16:45:59.980Z,12.21
2022-11-24T16:48:26.736Z,12.09
2022-11-24T16:50:53.405Z,12.25
2022-11-24T16:53:20.123Z,12.05
2022-11-24T16:55:56.578Z,12.21
2022-11-24T16:58:23.193Z,12.20
2022-11-24T17:00:50.107Z,11.65
2022-11-24T17:03:16.807Z,11.76
2022-11-24T17:05:43.483Z,11.56
2022-11-24T17:08:10.159Z,11.47
2022-11-24T17:10:39.810Z,11.76
2022-11-24T17:13:06.474Z,11.15
2022-11-24T17:15:37.792Z,11.26
2022-11-24T17:18:35.685Z,11.43
2022-11-24T17:20:57.835Z,11.77
2022-11-24T17:23:25.100Z,11.66
2022-11-24T17:25:51.729Z,11.22
2022-11-24T17:28:18.686Z,11.45
2022-11-24T17:30:45.363Z,11.36
2022-11-24T17:33:12.635Z,11.51
2022-11-24T17:35:39.329Z,11.07
2022-11-24T17:38:05.996Z,11.22
2022-11-24T17:40:32.652Z,11.06
2022-11-24T17:43:00.413Z,11.44
2022-11-24T17:45:28.761Z,11.47
2022-11-24T17:47:56.182Z,11.42
2022-11-24T17:50:25.927Z,11.24
2022-11-24T17:52:53.842Z,11.38
2022-11-24T17:55:21.021Z,11.26
2022-11-24T17:57:47.680Z,11.20
2022-11-24T18:00:14.838Z,11.15
2022-11-24T18:02:41.883Z,11.03
2022-11-24T18:05:09.036Z,11.13
2022-11-24T18:07:36.975Z,10.90
2022-11-24T18:10:04.252Z,10.90
2022-11-24T18:12:32.052Z,10.85
2022-11-24T18:14:58.754Z,11.37
2022-11-24T18:17:25.557Z,11.11
2022-11-24T18:19:52.234Z,11.13
2022-11-24T18:22:21.058Z,10.94
2022-11-24T18:24:53.894Z,10.91
2022-11-24T18:27:20.509Z,10.81
2022-11-24T18:29:49.830Z,11.16
2022-11-24T18:32:18.702Z,11.16
2022-11-24T18:34:45.385Z,11.23
2022-11-24T18:37:13.568Z,11.06
2022-11-24T18:39:42.979Z,11.13
2022-11-24T18:42:10.427Z,10.99
2022-11-24T18:44:37.326Z,11.13
2022-11-24T18:47:04.461Z,11.06
2022-11-24T18:49:34.153Z,10.87
2022-11-24T18:52:00.760Z,10.81
2022-11-24T18:54:28.152Z,10.73
2022-11-24T18:56:58.989Z,11.02
2022-11-24T18:59:29.766Z,10.70
2022-11-24T19:01:57.984Z,10.96
2022-11-24T19:04:26.197Z,10.75
2022-11-24T19:06:52.953Z,10.61
2022-11-24T19:09:22.551Z,10.86
2022-11-24T19:11:49.300Z,10.81
2022-11-24T19:14:18.165Z,10.72
2022-11-24T19:16:47.591Z,10.87
2022-11-24T19:19:14.353Z,10.45
2022-11-24T19:21:41.158Z,10.37
2022-11-24T19:24:13.319Z,10.82
2022-11-24T19:26:40.450Z,10.61
2022-11-24T19:29:08.426Z,10.52
2022-11-24T19:31:35.878Z,10.88
2022-11-24T19:34:03.438Z,11.29
2022-11-24T19:36:30.626Z,11.26
2022-11-24T19:38:58.537Z,10.76
2022-11-24T19:41:28.165Z,10.69
2022-11-24T19:43:55.176Z,10.52
2022-11-24T19:46:26.085Z,10.35
2022-11-24T19:48:59.791Z,10.62
2022-11-24T19:51:31.998Z,10.75
2022-11-24T19:53:59.497Z,10.70
2022-11-24T19:56:31.691Z,10.56
2022-11-24T19:58:58.355Z,10.31
2022-11-24T20:01:31.316Z,10.22
2022-11-24T20:04:03.825Z,10.16
2022-11-24T20:06:32.960Z,10.41
2022-11-24T20:09:00.703Z,10.35
2022-11-24T20:11:28.278Z,10.22
2022-11-24T20:13:55.634Z,10.68
2022-11-24T20:16:29.410Z,10.89
2022-11-24T20:18:58.687Z,10.53
2022-11-24T20:21:33.125Z,10.11
2022-11-24T20:24:05.747Z,10.05
2022-11-24T20:26:36.287Z,10.24
2022-11-24T20:29:04.052Z,9.78
2022-11-24T20:31:36.598Z,10.20
2022-11-24T20:34:05.076Z,10.46
2022-11-24T20:36:32.868Z,10.19
2022-11-24T20:39:01.406Z,10.22
2022-11-24T20:41:30.341Z,10.32
2022-11-24T20:44:01.147Z,10.15
2022-11-24T20:46:30.272Z,10.15
2022-11-24T20:48:57.857Z,10.04
2022-11-24T20:51:27.511Z,9.95
2022-11-24T20:53:58.228Z,10.22
2022-11-24T20:56:28.072Z,10.09
2022-11-24T20:58:55.475Z,10.15
2022-11-24T21:01:31.330Z,9.68
2022-11-24T21:03:59.454Z,9.74
2022-11-24T21:06:28.054Z,10.15
2022-11-24T21:09:00.491Z,10.25
2022-11-24T21:11:30.275Z,9.71
2022-11-24T21:13:57.266Z,10.25
2022-11-24T21:16:27.471Z,9.85
2022-11-24T21:19:02.439Z,10.09
2022-11-24T21:21:34.101Z,9.97
2022-11-24T21:24:02.599Z,9.89
2022-11-24T21:26:29.557Z,9.94
2022-11-24T21:28:57.120Z,10.15
2022-11-24T21:31:24.386Z,10.15
2022-11-24T21:33:53.106Z,10.46
2022-11-24T21:36:23.337Z,10.09
2022-11-24T21:38:58.767Z,9.95
2022-11-24T21:41:28.208Z,9.89
2022-11-24T21:43:55.933Z,10.47
2022-11-24T21:46:23.132Z,9.78
2022-11-24T21:48:50.820Z,10.04
2022-11-24T21:51:19.699Z,10.73
2022-11-24T21:53:47.418Z,10.52
2022-11-24T21:56:17.362Z,10.47
2022-11-24T21:58:51.981Z,10.14
2022-11-24T22:01:20.360Z,10.05
2022-11-24T22:03:47.208Z,9.99
2022-11-24T22:06:15.434Z,9.82
2022-11-24T22:08:42.351Z,10.22
2022-11-24T22:11:13.627Z,9.90
2022-11-24T22:13:41.398Z,10.09
2022-11-24T22:16:10.701Z,10.17
2022-11-24T22:18:40.071Z,9.75
2022-11-24T22:21:08.453Z,9.70
2022-11-24T22:23:36.295Z,9.74
2022-11-24T22:26:05.487Z,10.05
2022-11-24T22:28:33.401Z,10.09
2022-11-24T22:31:07.515Z,9.96
2022-11-24T22:33:34.490Z,9.97
2022-11-24T22:36:02.037Z,9.97
2022-11-24T22:38:30.167Z,9.85
2022-11-24T22:41:17.256Z,9.97
2022-11-24T22:43:45.199Z,9.76
2022-11-24T22:46:13.280Z,10.16
2022-11-24T22:48:40.793Z,10.01
2022-11-24T22:51:13.186Z,9.86
2022-11-24T22:53:41.725Z,10.00
2022-11-24T22:56:10.996Z,10.32
2022-11-24T22:58:39.148Z,9.88
2022-11-24T23:01:20.430Z,10.00
2022-11-24T23:03:48.686Z,9.85
2022-11-24T23:06:18.212Z,9.82
2022-11-24T23:08:44.980Z,9.95
2022-11-24T23:11:14.939Z,10.23
2022-11-24T23:13:42.355Z,9.44
2022-11-24T23:16:19.092Z,9.93
2022-11-24T23:18:52.367Z,10.29
2022-11-24T23:21:27.027Z,10.02
2022-11-24T23:23:54.165Z,9.51
2022-11-24T23:26:26.450Z,9.87
2022-11-24T23:28:53.531Z,9.88
2022-11-24T23:31:24.256Z,9.90
2022-11-24T23:33:51.047Z,9.54
2022-11-24T23:36:19.143Z,9.87
2022-11-24T23:38:47.227Z,9.78
2022-11-24T23:41:16.745Z,9.28
2022-11-24T23:43:43.830Z,9.49
2022-11-24T23:46:20.464Z,9.38
2022-11-24T23:48:48.190Z,9.50
2022-11-24T23:51:14.701Z,9.75
2022-11-24T23:53:42.227Z,9.46
2022-11-24T23:56:12.525Z,9.72
2022-11-24T23:58:39.878Z,9.49
